PWSweather.com
Personal Weather Stations
Station Observations
KETX01
Ketx, PatraGR 26331

KetxPatraGR 26331

Lat: 38.238889, Lon: 21.751111

Elevation: 56

Station Type: Davis Instruments / Vantage Pro2 Plus

http://meteopatras.eu

Latest ConditionsUpdated 2:05:04 PM GMT+02:02 Sunday, Jan 20, 2019
Currently Today's Max Today's Min Today's Average
Temperature 58.4°F14.7°C 58.4°F14.7°C 48.1°F8.9°C 51.7°F10.9°C
Dew Point 50.5°F10.3°C 50.9°F10.5°C 42.5°F5.8°C 46.1°F7.8°C
Winds 2.3 mph N3.7 kmh N 6.9 mph -11.1 kmh - - 2.3 mph 3.7 kmh
Wind Gusts 3.5 mph5.6 kmh 10.4 mph16.7 kmh - -
Humidity 75% 90% 73% 81%
Pressure 29.95 in1014.2 mb 30.04 in1017.3 mb 29.95 in1014.2 mb -
Precipitation - 0.01 in0.3 mm - -
Hour Temp Dew Point Humidity Winds Wind Gusts Pressure Precip Precip Rate Daily Precip Total
02:05 PM 58.4°F14.7°C 50.5°F10.3°C 75% 2.3 mph N3.7 kmh N 3.5 mph5.6 kmh 29.95 in1014.2 mb - 0.00 in0.0 mm 0.01 in0.3 mm
02:00 PM 58.3°F14.6°C 50.4°F10.2°C 75% 2.3 mph NNW3.7 kmh NNW 3.5 mph5.6 kmh 29.95 in1014.2 mb - 0.00 in0.0 mm 0.01 in0.3 mm
01:55 PM 58.4°F14.7°C 50.5°F10.3°C 75% 5.8 mph N9.3 kmh N 10.4 mph16.7 kmh 29.96 in1014.6 mb - 0.00 in0.0 mm 0.01 in0.3 mm
01:50 PM 58.1°F14.5°C 50.9°F10.5°C 77% 3.5 mph NNE5.6 kmh NNE 4.6 mph7.4 kmh 29.96 in1014.6 mb - 0.00 in0.0 mm 0.01 in0.3 mm
01:45 PM 57.7°F14.3°C 50.5°F10.3°C 77% 2.3 mph N3.7 kmh N 6.9 mph11.1 kmh 29.96 in1014.6 mb - 0.00 in0.0 mm 0.01 in0.3 mm
01:40 PM 57.3°F14.1°C 50.5°F10.3°C 78% 3.5 mph NNE5.6 kmh NNE 3.5 mph5.6 kmh 29.96 in1014.6 mb - 0.00 in0.0 mm 0.01 in0.3 mm
01:35 PM 57.1°F13.9°C 50.0°F10.0°C 77% 3.5 mph N5.6 kmh N 8.1 mph13.0 kmh 29.96 in1014.6 mb - 0.00 in0.0 mm 0.01 in0.3 mm
01:30 PM 57.2°F14.0°C 50.0°F10.0°C 77% 3.5 mph N5.6 kmh N 8.1 mph13.0 kmh 29.96 in1014.6 mb - 0.00 in0.0 mm 0.01 in0.3 mm
01:25 PM 57.0°F13.9°C 49.9°F9.9°C 77% 3.5 mph N5.6 kmh N 6.9 mph11.1 kmh 29.96 in1014.6 mb - 0.00 in0.0 mm 0.01 in0.3 mm
01:20 PM 56.8°F13.8°C 50.0°F10.0°C 78% 2.3 mph N3.7 kmh N 3.5 mph5.6 kmh 29.97 in1014.9 mb - 0.00 in0.0 mm 0.01 in0.3 mm
01:15 PM 56.6°F13.7°C 49.8°F9.9°C 78% 3.5 mph NNE5.6 kmh NNE 8.1 mph13.0 kmh 29.97 in1014.9 mb - 0.00 in0.0 mm 0.01 in0.3 mm
01:10 PM 56.5°F13.6°C 49.7°F9.8°C 78% 3.5 mph N5.6 kmh N 4.6 mph7.4 kmh 29.97 in1014.9 mb - 0.00 in0.0 mm 0.01 in0.3 mm
01:05 PM 56.6°F13.7°C 49.5°F9.7°C 77% 4.6 mph N7.4 kmh N 8.1 mph13.0 kmh 29.97 in1014.9 mb - 0.00 in0.0 mm 0.01 in0.3 mm
01:00 PM 56.9°F13.8°C 49.4°F9.7°C 76% 6.9 mph N11.1 kmh N 10.4 mph16.7 kmh 29.98 in1015.2 mb - 0.00 in0.0 mm 0.01 in0.3 mm
12:55 PM 57.2°F14.0°C 49.3°F9.6°C 75% 3.5 mph NNW5.6 kmh NNW 4.6 mph7.4 kmh 29.97 in1014.9 mb - 0.00 in0.0 mm 0.01 in0.3 mm
12:50 PM 57.1°F13.9°C 48.9°F9.4°C 74% 4.6 mph N7.4 kmh N 8.1 mph13.0 kmh 29.97 in1014.9 mb - 0.00 in0.0 mm 0.01 in0.3 mm
12:45 PM 57.1°F13.9°C 49.6°F9.8°C 76% 5.8 mph N9.3 kmh N 10.4 mph16.7 kmh 29.97 in1014.9 mb - 0.00 in0.0 mm 0.01 in0.3 mm
12:40 PM 57.2°F14.0°C 49.7°F9.8°C 76% 6.9 mph N11.1 kmh N 10.4 mph16.7 kmh 29.97 in1014.9 mb - 0.00 in0.0 mm 0.01 in0.3 mm
12:35 PM 57.0°F13.9°C 48.8°F9.3°C 74% 4.6 mph N7.4 kmh N 8.1 mph13.0 kmh 29.98 in1015.2 mb - 0.00 in0.0 mm 0.01 in0.3 mm
12:30 PM 56.8°F13.8°C 48.6°F9.2°C 74% 3.5 mph N5.6 kmh N 6.9 mph11.1 kmh 29.98 in1015.2 mb - 0.00 in0.0 mm 0.01 in0.3 mm
12:25 PM 56.7°F13.7°C 48.5°F9.2°C 74% 4.6 mph N7.4 kmh N 4.6 mph7.4 kmh 29.98 in1015.2 mb - 0.00 in0.0 mm 0.01 in0.3 mm
12:20 PM 56.6°F13.7°C 48.0°F8.9°C 73% 4.6 mph N7.4 kmh N 5.8 mph9.3 kmh 29.99 in1015.6 mb - 0.00 in0.0 mm 0.01 in0.3 mm
12:15 PM 56.5°F13.6°C 48.3°F9.1°C 74% 3.5 mph NNE5.6 kmh NNE 4.6 mph7.4 kmh 29.99 in1015.6 mb - 0.00 in0.0 mm 0.01 in0.3 mm
12:10 PM 56.3°F13.5°C 48.1°F8.9°C 74% 4.6 mph NNE7.4 kmh NNE 5.8 mph9.3 kmh 29.99 in1015.6 mb - 0.00 in0.0 mm 0.01 in0.3 mm
12:05 PM 56.3°F13.5°C 48.1°F8.9°C 74% 5.8 mph N9.3 kmh N 10.4 mph16.7 kmh 29.99 in1015.6 mb - 0.00 in0.0 mm 0.01 in0.3 mm
12:00 PM 56.3°F13.5°C 48.1°F8.9°C 74% 4.6 mph NNE7.4 kmh NNE 9.2 mph14.8 kmh 30.00 in1015.9 mb - 0.00 in0.0 mm 0.01 in0.3 mm
11:55 AM 56.2°F13.4°C 48.0°F8.9°C 74% 5.8 mph NE9.3 kmh NE 9.2 mph14.8 kmh 30.00 in1015.9 mb - 0.00 in0.0 mm 0.01 in0.3 mm
11:50 AM 56.1°F13.4°C 47.9°F8.8°C 74% 3.5 mph NNE5.6 kmh NNE 3.5 mph5.6 kmh 30.00 in1015.9 mb - 0.00 in0.0 mm 0.01 in0.3 mm
11:45 AM 55.9°F13.3°C 47.7°F8.7°C 74% 4.6 mph NNE7.4 kmh NNE 5.8 mph9.3 kmh 30.00 in1015.9 mb - 0.00 in0.0 mm 0.01 in0.3 mm
11:40 AM 55.9°F13.3°C 47.7°F8.7°C 74% 5.8 mph NNE9.3 kmh NNE 8.1 mph13.0 kmh 30.00 in1015.9 mb - 0.00 in0.0 mm 0.01 in0.3 mm
11:35 AM 55.7°F13.2°C 47.9°F8.8°C 75% 4.6 mph N7.4 kmh N 8.1 mph13.0 kmh 30.00 in1015.9 mb - 0.00 in0.0 mm 0.01 in0.3 mm
11:30 AM 55.7°F13.2°C 48.2°F9.0°C 76% 3.5 mph N5.6 kmh N 3.5 mph5.6 kmh 30.00 in1015.9 mb - 0.00 in0.0 mm 0.01 in0.3 mm
11:25 AM 55.6°F13.1°C 48.2°F9.0°C 76% 3.5 mph NNE5.6 kmh NNE 4.6 mph7.4 kmh 30.00 in1015.9 mb - 0.00 in0.0 mm 0.01 in0.3 mm
11:20 AM 55.5°F13.1°C 48.4°F9.1°C 77% 1.2 mph N1.9 kmh N 2.3 mph3.7 kmh 30.01 in1016.3 mb - 0.00 in0.0 mm 0.01 in0.3 mm
11:15 AM 55.5°F13.1°C 48.4°F9.1°C 77% 2.3 mph 3.7 kmh 3.5 mph5.6 kmh 30.01 in1016.3 mb - 0.00 in0.0 mm 0.01 in0.3 mm
11:10 AM 55.4°F13.0°C 48.3°F9.1°C 77% 1.2 mph NE1.9 kmh NE 2.3 mph3.7 kmh 30.01 in1016.3 mb - 0.00 in0.0 mm 0.01 in0.3 mm
11:05 AM 55.2°F12.9°C 48.1°F8.9°C 77% Calm Calm 2.3 mph3.7 kmh 30.01 in1016.3 mb - 0.00 in0.0 mm 0.01 in0.3 mm
11:00 AM 54.8°F12.7°C 47.4°F8.6°C 76% 1.2 mph NE1.9 kmh NE 1.2 mph1.9 kmh 30.01 in1016.3 mb - 0.00 in0.0 mm 0.01 in0.3 mm
10:55 AM 54.6°F12.6°C 47.2°F8.4°C 76% 1.2 mph NE1.9 kmh NE 2.3 mph3.7 kmh 30.01 in1016.3 mb - 0.00 in0.0 mm 0.01 in0.3 mm
10:50 AM 54.3°F12.4°C 46.9°F8.3°C 76% 2.3 mph NE3.7 kmh NE 4.6 mph7.4 kmh 30.01 in1016.3 mb - 0.00 in0.0 mm 0.01 in0.3 mm
10:45 AM 54.1°F12.3°C 46.7°F8.2°C 76% 4.6 mph NNE7.4 kmh NNE 4.6 mph7.4 kmh 30.01 in1016.3 mb - 0.00 in0.0 mm 0.01 in0.3 mm
10:40 AM 54.1°F12.3°C 46.7°F8.2°C 76% 5.8 mph N9.3 kmh N 8.1 mph13.0 kmh 30.00 in1015.9 mb - 0.00 in0.0 mm 0.01 in0.3 mm
10:35 AM 54.0°F12.2°C 46.3°F7.9°C 75% 4.6 mph NNE7.4 kmh NNE 8.1 mph13.0 kmh 30.01 in1016.3 mb - 0.00 in0.0 mm 0.01 in0.3 mm
10:30 AM 54.1°F12.3°C 46.3°F7.9°C 75% 4.6 mph NNE7.4 kmh NNE 8.1 mph13.0 kmh 30.00 in1015.9 mb - 0.00 in0.0 mm 0.01 in0.3 mm
10:25 AM 54.1°F12.3°C 46.0°F7.8°C 74% 4.6 mph NNW7.4 kmh NNW 9.2 mph14.8 kmh 30.00 in1015.9 mb - 0.00 in0.0 mm 0.01 in0.3 mm
10:20 AM 54.3°F12.4°C 46.2°F7.9°C 74% 3.5 mph N5.6 kmh N 9.2 mph14.8 kmh 30.00 in1015.9 mb - 0.00 in0.0 mm 0.01 in0.3 mm
10:15 AM 54.6°F12.6°C 46.5°F8.1°C 74% 4.6 mph N7.4 kmh N 10.4 mph16.7 kmh 30.00 in1015.9 mb - 0.00 in0.0 mm 0.01 in0.3 mm
10:10 AM 55.0°F12.8°C 46.9°F8.3°C 74% 3.5 mph NNW5.6 kmh NNW 4.6 mph7.4 kmh 30.01 in1016.3 mb - 0.00 in0.0 mm 0.01 in0.3 mm
10:05 AM 55.5°F13.1°C 47.7°F8.7°C 75% 1.2 mph E1.9 kmh E 1.2 mph1.9 kmh 30.01 in1016.3 mb - 0.00 in0.0 mm 0.01 in0.3 mm
10:00 AM 55.6°F13.1°C 48.1°F8.9°C 76% 1.2 mph E1.9 kmh E 2.3 mph3.7 kmh 30.01 in1016.3 mb - 0.00 in0.0 mm 0.01 in0.3 mm
09:55 AM 54.9°F12.7°C 47.5°F8.6°C 76% 1.2 mph E1.9 kmh E 1.2 mph1.9 kmh 30.01 in1016.3 mb - 0.00 in0.0 mm 0.01 in0.3 mm
09:50 AM 53.9°F12.2°C 46.5°F8.1°C 76% Calm Calm -- 30.01 in1016.3 mb - 0.00 in0.0 mm 0.01 in0.3 mm
09:45 AM 52.7°F11.5°C 45.7°F7.6°C 77% Calm Calm -- 30.01 in1016.3 mb - 0.00 in0.0 mm 0.01 in0.3 mm
09:40 AM 51.8°F11.0°C 45.2°F7.3°C 78% Calm Calm -- 30.01 in1016.3 mb - 0.00 in0.0 mm 0.01 in0.3 mm
09:35 AM 51.1°F10.6°C 45.5°F7.5°C 81% 2.3 mph E3.7 kmh E 3.5 mph5.6 kmh 30.00 in1015.9 mb - 0.00 in0.0 mm 0.01 in0.3 mm
09:30 AM 50.8°F10.4°C 44.9°F7.2°C 80% Calm Calm 1.2 mph1.9 kmh 30.01 in1016.3 mb - 0.00 in0.0 mm 0.01 in0.3 mm
09:25 AM 50.8°F10.4°C 45.2°F7.3°C 81% 1.2 mph E1.9 kmh E 2.3 mph3.7 kmh 30.00 in1015.9 mb - 0.00 in0.0 mm 0.01 in0.3 mm
09:20 AM 50.7°F10.4°C 44.8°F7.1°C 80% Calm Calm 1.2 mph1.9 kmh 30.00 in1015.9 mb - 0.00 in0.0 mm 0.01 in0.3 mm
09:15 AM 50.5°F10.3°C 44.6°F7.0°C 80% Calm Calm 1.2 mph1.9 kmh 30.00 in1015.9 mb - 0.00 in0.0 mm 0.01 in0.3 mm
09:10 AM 50.2°F10.1°C 44.3°F6.8°C 80% 1.2 mph E1.9 kmh E 2.3 mph3.7 kmh 30.00 in1015.9 mb - 0.00 in0.0 mm 0.01 in0.3 mm
09:05 AM 49.8°F9.9°C 44.2°F6.8°C 81% 2.3 mph E3.7 kmh E 3.5 mph5.6 kmh 30.00 in1015.9 mb - 0.00 in0.0 mm 0.01 in0.3 mm
09:00 AM 49.5°F9.7°C 44.0°F6.7°C 81% 1.2 mph E1.9 kmh E 2.3 mph3.7 kmh 30.00 in1015.9 mb - 0.00 in0.0 mm 0.01 in0.3 mm
08:55 AM 49.3°F9.6°C 44.1°F6.7°C 82% 1.2 mph E1.9 kmh E 2.3 mph3.7 kmh 30.00 in1015.9 mb - 0.00 in0.0 mm 0.01 in0.3 mm
08:50 AM 49.0°F9.4°C 43.8°F6.6°C 82% Calm Calm 1.2 mph1.9 kmh 30.00 in1015.9 mb - 0.00 in0.0 mm 0.01 in0.3 mm
08:45 AM 48.7°F9.3°C 43.2°F6.2°C 81% 2.3 mph E3.7 kmh E 3.5 mph5.6 kmh 30.00 in1015.9 mb - 0.00 in0.0 mm 0.01 in0.3 mm
08:40 AM 48.5°F9.2°C 43.3°F6.3°C 82% 1.2 mph E1.9 kmh E 2.3 mph3.7 kmh 30.00 in1015.9 mb - 0.00 in0.0 mm 0.01 in0.3 mm
08:35 AM 48.4°F9.1°C 43.1°F6.2°C 82% 2.3 mph E3.7 kmh E 2.3 mph3.7 kmh 29.99 in1015.6 mb - 0.00 in0.0 mm 0.01 in0.3 mm
08:30 AM 48.4°F9.1°C 42.8°F6.0°C 81% 2.3 mph E3.7 kmh E 2.3 mph3.7 kmh 29.99 in1015.6 mb - 0.00 in0.0 mm 0.01 in0.3 mm
08:25 AM 48.6°F9.2°C 42.7°F5.9°C 80% Calm Calm -- 29.99 in1015.6 mb - 0.00 in0.0 mm 0.01 in0.3 mm
08:20 AM 48.8°F9.3°C 42.9°F6.1°C 80% 1.2 mph E1.9 kmh E 1.2 mph1.9 kmh 29.99 in1015.6 mb - 0.00 in0.0 mm 0.01 in0.3 mm
08:15 AM 48.9°F9.4°C 43.0°F6.1°C 80% 1.2 mph E1.9 kmh E 1.2 mph1.9 kmh 29.99 in1015.6 mb - 0.00 in0.0 mm 0.01 in0.3 mm
08:10 AM 48.5°F9.2°C 42.9°F6.1°C 81% 2.3 mph E3.7 kmh E 3.5 mph5.6 kmh 29.99 in1015.6 mb - 0.00 in0.0 mm 0.01 in0.3 mm
08:05 AM 48.6°F9.2°C 43.0°F6.1°C 81% 2.3 mph ESE3.7 kmh ESE 3.5 mph5.6 kmh 29.99 in1015.6 mb - 0.00 in0.0 mm 0.01 in0.3 mm
08:00 AM 48.6°F9.2°C 43.0°F6.1°C 81% Calm Calm 3.5 mph5.6 kmh 29.99 in1015.6 mb - 0.00 in0.0 mm 0.01 in0.3 mm
07:55 AM 48.4°F9.1°C 42.8°F6.0°C 81% 2.3 mph ESE3.7 kmh ESE 2.3 mph3.7 kmh 29.98 in1015.2 mb - 0.00 in0.0 mm 0.01 in0.3 mm
07:50 AM 48.1°F8.9°C 42.5°F5.8°C 81% 1.2 mph ESE1.9 kmh ESE 2.3 mph3.7 kmh 29.98 in1015.2 mb - 0.00 in0.0 mm 0.01 in0.3 mm
07:45 AM 48.3°F9.1°C 42.7°F5.9°C 81% 1.2 mph ESE1.9 kmh ESE 2.3 mph3.7 kmh 29.98 in1015.2 mb - 0.00 in0.0 mm 0.01 in0.3 mm
07:40 AM 48.6°F9.2°C 43.0°F6.1°C 81% 3.5 mph ESE5.6 kmh ESE 3.5 mph5.6 kmh 29.98 in1015.2 mb - 0.00 in0.0 mm 0.01 in0.3 mm
07:35 AM 48.6°F9.2°C 43.0°F6.1°C 81% 2.3 mph E3.7 kmh E 3.5 mph5.6 kmh 29.98 in1015.2 mb - 0.00 in0.0 mm 0.01 in0.3 mm
07:30 AM 48.4°F9.1°C 42.9°F6.1°C 81% 1.2 mph E1.9 kmh E 3.5 mph5.6 kmh 29.98 in1015.2 mb - 0.00 in0.0 mm 0.01 in0.3 mm
07:25 AM 48.3°F9.1°C 43.1°F6.2°C 82% 1.2 mph E1.9 kmh E 2.3 mph3.7 kmh 29.98 in1015.2 mb - 0.00 in0.0 mm 0.01 in0.3 mm
07:20 AM 48.4°F9.1°C 43.2°F6.2°C 82% 1.2 mph E1.9 kmh E 2.3 mph3.7 kmh 29.98 in1015.2 mb - 0.00 in0.0 mm 0.01 in0.3 mm
07:15 AM 48.5°F9.2°C 42.9°F6.1°C 81% 2.3 mph E3.7 kmh E 2.3 mph3.7 kmh 29.98 in1015.2 mb - 0.00 in0.0 mm 0.01 in0.3 mm
07:10 AM 48.7°F9.3°C 43.1°F6.2°C 81% 2.3 mph ENE3.7 kmh ENE 3.5 mph5.6 kmh 29.98 in1015.2 mb - 0.00 in0.0 mm 0.01 in0.3 mm
07:05 AM 48.6°F9.2°C 43.4°F6.3°C 82% 1.2 mph ENE1.9 kmh ENE 2.3 mph3.7 kmh 29.98 in1015.2 mb - 0.00 in0.0 mm 0.01 in0.3 mm
07:00 AM 48.5°F9.2°C 43.3°F6.3°C 82% 3.5 mph ENE5.6 kmh ENE 3.5 mph5.6 kmh 29.98 in1015.2 mb - 0.00 in0.0 mm 0.01 in0.3 mm
06:55 AM 48.8°F9.3°C 43.2°F6.2°C 81% 2.3 mph E3.7 kmh E 3.5 mph5.6 kmh 29.98 in1015.2 mb - 0.00 in0.0 mm 0.01 in0.3 mm
06:50 AM 49.1°F9.5°C 43.2°F6.2°C 80% 1.2 mph E1.9 kmh E 2.3 mph3.7 kmh 29.98 in1015.2 mb - 0.00 in0.0 mm 0.01 in0.3 mm
06:45 AM 49.1°F9.5°C 43.2°F6.2°C 80% 1.2 mph E1.9 kmh E 2.3 mph3.7 kmh 29.98 in1015.2 mb - 0.00 in0.0 mm 0.01 in0.3 mm
06:40 AM 49.1°F9.5°C 43.2°F6.2°C 80% 2.3 mph E3.7 kmh E 3.5 mph5.6 kmh 29.98 in1015.2 mb - 0.00 in0.0 mm 0.01 in0.3 mm
06:35 AM 49.1°F9.5°C 43.5°F6.4°C 81% 2.3 mph E3.7 kmh E 3.5 mph5.6 kmh 29.98 in1015.2 mb - 0.00 in0.0 mm 0.01 in0.3 mm
06:30 AM 49.0°F9.4°C 43.5°F6.4°C 81% 2.3 mph E3.7 kmh E 4.6 mph7.4 kmh 29.98 in1015.2 mb - 0.00 in0.0 mm 0.01 in0.3 mm
06:25 AM 49.2°F9.6°C 43.3°F6.3°C 80% 2.3 mph ENE3.7 kmh ENE 5.8 mph9.3 kmh 29.98 in1015.2 mb - 0.00 in0.0 mm 0.01 in0.3 mm
06:20 AM 49.3°F9.6°C 43.4°F6.3°C 80% 2.3 mph E3.7 kmh E 3.5 mph5.6 kmh 29.98 in1015.2 mb - 0.00 in0.0 mm 0.01 in0.3 mm
06:15 AM 49.3°F9.6°C 43.4°F6.3°C 80% 2.3 mph ENE3.7 kmh ENE 3.5 mph5.6 kmh 29.98 in1015.2 mb - 0.00 in0.0 mm 0.01 in0.3 mm
06:10 AM 49.6°F9.8°C 43.7°F6.5°C 80% 1.2 mph ENE1.9 kmh ENE 2.3 mph3.7 kmh 29.98 in1015.2 mb - 0.00 in0.0 mm 0.01 in0.3 mm
06:05 AM 49.6°F9.8°C 43.4°F6.3°C 79% 2.3 mph ENE3.7 kmh ENE 3.5 mph5.6 kmh 29.98 in1015.2 mb - 0.00 in0.0 mm 0.01 in0.3 mm
06:00 AM 49.9°F9.9°C 43.6°F6.4°C 79% 3.5 mph ENE5.6 kmh ENE 4.6 mph7.4 kmh 29.98 in1015.2 mb - 0.00 in0.0 mm 0.01 in0.3 mm
05:55 AM 50.2°F10.1°C 43.6°F6.4°C 78% 1.2 mph ENE1.9 kmh ENE 2.3 mph3.7 kmh 29.98 in1015.2 mb - 0.00 in0.0 mm 0.01 in0.3 mm
05:50 AM 50.4°F10.2°C 43.5°F6.4°C 77% 2.3 mph ENE3.7 kmh ENE 3.5 mph5.6 kmh 29.98 in1015.2 mb - 0.00 in0.0 mm 0.01 in0.3 mm
05:45 AM 50.3°F10.2°C 43.7°F6.5°C 78% 3.5 mph ENE5.6 kmh ENE 3.5 mph5.6 kmh 29.98 in1015.2 mb - 0.00 in0.0 mm 0.01 in0.3 mm
05:40 AM 50.2°F10.1°C 43.6°F6.4°C 78% 3.5 mph ENE5.6 kmh ENE 3.5 mph5.6 kmh 29.98 in1015.2 mb - 0.00 in0.0 mm 0.01 in0.3 mm
05:35 AM 49.7°F9.8°C 43.8°F6.6°C 80% 2.3 mph ENE3.7 kmh ENE 3.5 mph5.6 kmh 29.99 in1015.6 mb - 0.00 in0.0 mm 0.01 in0.3 mm
05:30 AM 49.5°F9.7°C 44.2°F6.8°C 82% 2.3 mph ENE3.7 kmh ENE 3.5 mph5.6 kmh 29.99 in1015.6 mb - 0.00 in0.0 mm 0.01 in0.3 mm
05:25 AM 49.4°F9.7°C 44.2°F6.8°C 82% 2.3 mph ENE3.7 kmh ENE 2.3 mph3.7 kmh 29.99 in1015.6 mb - 0.00 in0.0 mm 0.01 in0.3 mm
05:20 AM 49.4°F9.7°C 44.1°F6.7°C 82% 3.5 mph ENE5.6 kmh ENE 3.5 mph5.6 kmh 29.98 in1015.2 mb - 0.00 in0.0 mm 0.01 in0.3 mm
05:15 AM 49.5°F9.7°C 44.3°F6.8°C 82% 1.2 mph E1.9 kmh E 3.5 mph5.6 kmh 29.99 in1015.6 mb - 0.00 in0.0 mm 0.01 in0.3 mm
05:10 AM 49.6°F9.8°C 44.3°F6.8°C 82% 2.3 mph E3.7 kmh E 3.5 mph5.6 kmh 29.98 in1015.2 mb - 0.00 in0.0 mm 0.01 in0.3 mm
05:05 AM 49.7°F9.8°C 44.7°F7.1°C 83% 2.3 mph E3.7 kmh E 3.5 mph5.6 kmh 29.99 in1015.6 mb - 0.00 in0.0 mm 0.01 in0.3 mm
05:00 AM 49.9°F9.9°C 44.9°F7.2°C 83% 2.3 mph E3.7 kmh E 3.5 mph5.6 kmh 29.99 in1015.6 mb - 0.00 in0.0 mm 0.01 in0.3 mm
04:55 AM 50.3°F10.2°C 45.3°F7.4°C 83% 3.5 mph E5.6 kmh E 3.5 mph5.6 kmh 29.99 in1015.6 mb - 0.00 in0.0 mm 0.01 in0.3 mm
04:50 AM 50.6°F10.3°C 45.6°F7.6°C 83% 2.3 mph E3.7 kmh E 3.5 mph5.6 kmh 30.00 in1015.9 mb - 0.00 in0.0 mm 0.01 in0.3 mm
04:45 AM 50.6°F10.3°C 45.9°F7.7°C 84% 1.2 mph E1.9 kmh E 2.3 mph3.7 kmh 30.00 in1015.9 mb - 0.00 in0.0 mm 0.01 in0.3 mm
04:40 AM 50.6°F10.3°C 45.9°F7.7°C 84% 2.3 mph ESE3.7 kmh ESE 3.5 mph5.6 kmh 30.00 in1015.9 mb - 0.00 in0.0 mm 0.01 in0.3 mm
04:35 AM 50.7°F10.4°C 46.0°F7.8°C 84% 2.3 mph ESE3.7 kmh ESE 3.5 mph5.6 kmh 30.00 in1015.9 mb - 0.00 in0.0 mm 0.01 in0.3 mm
04:30 AM 50.9°F10.5°C 45.9°F7.7°C 83% 1.2 mph ESE1.9 kmh ESE 3.5 mph5.6 kmh 30.00 in1015.9 mb - 0.00 in0.0 mm 0.01 in0.3 mm
04:25 AM 51.3°F10.7°C 46.3°F7.9°C 83% 4.6 mph ESE7.4 kmh ESE 5.8 mph9.3 kmh 30.01 in1016.3 mb - 0.00 in0.0 mm 0.01 in0.3 mm
04:20 AM 51.2°F10.7°C 46.2°F7.9°C 83% 3.5 mph NE5.6 kmh NE 4.6 mph7.4 kmh 30.01 in1016.3 mb - 0.00 in0.0 mm 0.01 in0.3 mm
04:15 AM 51.0°F10.6°C 46.3°F7.9°C 84% 2.3 mph ENE3.7 kmh ENE 3.5 mph5.6 kmh 30.01 in1016.3 mb - 0.00 in0.0 mm 0.01 in0.3 mm
04:10 AM 50.8°F10.4°C 46.1°F7.8°C 84% 4.6 mph NE7.4 kmh NE 9.2 mph14.8 kmh 30.01 in1016.3 mb - 0.00 in0.0 mm 0.01 in0.3 mm
04:05 AM 50.7°F10.4°C 46.3°F7.9°C 85% 2.3 mph ENE3.7 kmh ENE 9.2 mph14.8 kmh 30.01 in1016.3 mb - 0.00 in0.0 mm 0.01 in0.3 mm
04:00 AM 50.4°F10.2°C 46.0°F7.8°C 85% 4.6 mph NE7.4 kmh NE 6.9 mph11.1 kmh 30.02 in1016.6 mb - 0.00 in0.0 mm 0.01 in0.3 mm
03:55 AM 50.0°F10.0°C 46.0°F7.8°C 86% 3.5 mph NE5.6 kmh NE 3.5 mph5.6 kmh 30.02 in1016.6 mb - 0.00 in0.0 mm 0.01 in0.3 mm
03:50 AM 49.7°F9.8°C 45.9°F7.7°C 87% 3.5 mph ENE5.6 kmh ENE 4.6 mph7.4 kmh 30.02 in1016.6 mb - 0.00 in0.0 mm 0.01 in0.3 mm
03:45 AM 49.4°F9.7°C 45.7°F7.6°C 87% 2.3 mph NE3.7 kmh NE 3.5 mph5.6 kmh 30.02 in1016.6 mb - 0.00 in0.0 mm 0.01 in0.3 mm
03:40 AM 49.4°F9.7°C 45.7°F7.6°C 87% Calm Calm -- 30.02 in1016.6 mb - 0.00 in0.0 mm 0.01 in0.3 mm
03:35 AM 49.5°F9.7°C 45.8°F7.7°C 87% 1.2 mph NE1.9 kmh NE 3.5 mph5.6 kmh 30.03 in1016.9 mb - 0.00 in0.0 mm 0.01 in0.3 mm
03:30 AM 49.8°F9.9°C 45.8°F7.7°C 86% Calm Calm -- 30.03 in1016.9 mb - 0.00 in0.0 mm 0.01 in0.3 mm
03:25 AM 49.9°F9.9°C 45.9°F7.7°C 86% Calm Calm -- 30.03 in1016.9 mb - 0.00 in0.0 mm 0.01 in0.3 mm
03:20 AM 49.9°F9.9°C 45.9°F7.7°C 86% 1.2 mph NE1.9 kmh NE 2.3 mph3.7 kmh 30.03 in1016.9 mb - 0.00 in0.0 mm 0.01 in0.3 mm
03:15 AM 49.9°F9.9°C 45.9°F7.7°C 86% 2.3 mph NE3.7 kmh NE 4.6 mph7.4 kmh 30.03 in1016.9 mb - 0.00 in0.0 mm 0.01 in0.3 mm
03:10 AM 50.0°F10.0°C 46.0°F7.8°C 86% 2.3 mph NE3.7 kmh NE 3.5 mph5.6 kmh 30.03 in1016.9 mb - 0.00 in0.0 mm 0.01 in0.3 mm
03:05 AM 49.8°F9.9°C 46.1°F7.8°C 87% 3.5 mph NE5.6 kmh NE 4.6 mph7.4 kmh 30.02 in1016.6 mb - 0.01 in0.3 mm 0.01 in0.3 mm
03:00 AM 49.8°F9.9°C 46.1°F7.8°C 87% 3.5 mph NE5.6 kmh NE 4.6 mph7.4 kmh 30.02 in1016.6 mb - 0.01 in0.3 mm 0.01 in0.3 mm
02:55 AM 49.9°F9.9°C 46.2°F7.9°C 87% 5.8 mph NE9.3 kmh NE 9.2 mph14.8 kmh 30.02 in1016.6 mb - 0.01 in0.3 mm 0.01 in0.3 mm
02:50 AM 50.1°F10.1°C 46.4°F8.0°C 87% 4.6 mph ENE7.4 kmh ENE 4.6 mph7.4 kmh 30.02 in1016.6 mb - 0.01 in0.3 mm 0.01 in0.3 mm
02:45 AM 50.2°F10.1°C 46.8°F8.2°C 88% 2.3 mph ENE3.7 kmh ENE 3.5 mph5.6 kmh 30.02 in1016.6 mb - 0.01 in0.3 mm 0.01 in0.3 mm
02:40 AM 50.2°F10.1°C 46.8°F8.2°C 88% 2.3 mph ENE3.7 kmh ENE 3.5 mph5.6 kmh 30.02 in1016.6 mb - 0.01 in0.3 mm 0.01 in0.3 mm
02:35 AM 50.0°F10.0°C 46.9°F8.3°C 89% 2.3 mph ENE3.7 kmh ENE 3.5 mph5.6 kmh 30.02 in1016.6 mb - 0.01 in0.3 mm 0.01 in0.3 mm
02:30 AM 50.0°F10.0°C 46.9°F8.3°C 89% 2.3 mph ESE3.7 kmh ESE 3.5 mph5.6 kmh 30.02 in1016.6 mb - 0.01 in0.3 mm 0.01 in0.3 mm
02:25 AM 50.1°F10.1°C 47.0°F8.3°C 89% 2.3 mph ESE3.7 kmh ESE 3.5 mph5.6 kmh 30.03 in1016.9 mb - 0.01 in0.3 mm 0.01 in0.3 mm
02:20 AM 50.2°F10.1°C 47.0°F8.3°C 89% Calm Calm 1.2 mph1.9 kmh 30.03 in1016.9 mb - 0.01 in0.3 mm 0.01 in0.3 mm
02:15 AM 50.2°F10.1°C 47.1°F8.4°C 89% 1.2 mph SE1.9 kmh SE 2.3 mph3.7 kmh 30.03 in1016.9 mb - 0.01 in0.3 mm 0.01 in0.3 mm
02:10 AM 50.2°F10.1°C 47.1°F8.4°C 89% 1.2 mph SE1.9 kmh SE 3.5 mph5.6 kmh 30.03 in1016.9 mb - 0.01 in0.3 mm 0.01 in0.3 mm
02:05 AM 50.2°F10.1°C 47.1°F8.4°C 89% Calm Calm 1.2 mph1.9 kmh 30.03 in1016.9 mb - 0.01 in0.3 mm 0.01 in0.3 mm
02:00 AM 50.2°F10.1°C 47.1°F8.4°C 89% 1.2 mph SSW1.9 kmh SSW 1.2 mph1.9 kmh 30.04 in1017.3 mb - 0.00 in0.0 mm 0.31 in7.9 mm
01:55 AM 50.2°F10.1°C 47.1°F8.4°C 89% 2.3 mph SSW3.7 kmh SSW 3.5 mph5.6 kmh 30.04 in1017.3 mb - 0.00 in0.0 mm 0.31 in7.9 mm
01:50 AM 50.3°F10.2°C 47.2°F8.4°C 89% Calm Calm -- 30.04 in1017.3 mb - 0.00 in0.0 mm 0.31 in7.9 mm
01:45 AM 50.3°F10.2°C 47.2°F8.4°C 89% Calm Calm 1.2 mph1.9 kmh 30.04 in1017.3 mb - 0.00 in0.0 mm 0.31 in7.9 mm
01:40 AM 50.3°F10.2°C 47.2°F8.4°C 89% 1.2 mph SSW1.9 kmh SSW 3.5 mph5.6 kmh 30.04 in1017.3 mb - 0.00 in0.0 mm 0.31 in7.9 mm
01:35 AM 50.2°F10.1°C 47.4°F8.6°C 90% 2.3 mph SSW3.7 kmh SSW 4.6 mph7.4 kmh 30.04 in1017.3 mb - 0.00 in0.0 mm 0.31 in7.9 mm
01:30 AM 50.1°F10.1°C 47.3°F8.5°C 90% Calm Calm 2.3 mph3.7 kmh 30.04 in1017.3 mb - 0.00 in0.0 mm 0.31 in7.9 mm
01:25 AM 50.0°F10.0°C 46.9°F8.3°C 89% 2.3 mph WSW3.7 kmh WSW 3.5 mph5.6 kmh 30.04 in1017.3 mb - 0.00 in0.0 mm 0.31 in7.9 mm
01:20 AM 50.1°F10.1°C 46.9°F8.3°C 89% Calm Calm 1.2 mph1.9 kmh 30.03 in1016.9 mb - 0.00 in0.0 mm 0.31 in7.9 mm
01:15 AM 50.1°F10.1°C 46.7°F8.2°C 88% Calm Calm -- 30.02 in1016.6 mb - 0.00 in0.0 mm 0.31 in7.9 mm
01:10 AM 50.2°F10.1°C 46.8°F8.2°C 88% Calm Calm 2.3 mph3.7 kmh 30.03 in1016.9 mb - 0.00 in0.0 mm 0.31 in7.9 mm
01:05 AM 50.3°F10.2°C 46.8°F8.2°C 88% Calm Calm 3.5 mph5.6 kmh 30.03 in1016.9 mb - 0.00 in0.0 mm 0.31 in7.9 mm
01:00 AM 50.3°F10.2°C 46.8°F8.2°C 88% 2.3 mph SE3.7 kmh SE 4.6 mph7.4 kmh 30.02 in1016.6 mb - 0.00 in0.0 mm 0.31 in7.9 mm
12:55 AM 50.2°F10.1°C 46.8°F8.2°C 88% 1.2 mph SE1.9 kmh SE 3.5 mph5.6 kmh 30.02 in1016.6 mb - 0.00 in0.0 mm 0.31 in7.9 mm
12:50 AM 50.2°F10.1°C 46.5°F8.1°C 87% Calm Calm -- 30.02 in1016.6 mb - 0.01 in0.3 mm 0.31 in7.9 mm
12:45 AM 50.2°F10.1°C 46.5°F8.1°C 87% 1.2 mph SE1.9 kmh SE 2.3 mph3.7 kmh 30.02 in1016.6 mb - 0.01 in0.3 mm 0.30 in7.6 mm
12:40 AM 50.2°F10.1°C 46.8°F8.2°C 88% 2.3 mph SE3.7 kmh SE 3.5 mph5.6 kmh 30.02 in1016.6 mb - 0.02 in0.5 mm 0.29 in7.4 mm
12:35 AM 50.1°F10.1°C 46.7°F8.2°C 88% 1.2 mph SE1.9 kmh SE 2.3 mph3.7 kmh 30.02 in1016.6 mb - 0.02 in0.5 mm 0.27 in6.9 mm
12:30 AM 50.1°F10.1°C 46.7°F8.2°C 88% 1.2 mph SE1.9 kmh SE 3.5 mph5.6 kmh 30.02 in1016.6 mb - 0.03 in0.8 mm 0.25 in6.4 mm
12:25 AM 50.2°F10.1°C 46.8°F8.2°C 88% 1.2 mph SE1.9 kmh SE 3.5 mph5.6 kmh 30.02 in1016.6 mb - 0.03 in0.8 mm 0.22 in5.6 mm
12:20 AM 50.3°F10.2°C 47.1°F8.4°C 89% Calm Calm -- 30.02 in1016.6 mb - 0.03 in0.8 mm 0.19 in4.8 mm
12:15 AM 50.3°F10.2°C 46.9°F8.3°C 88% Calm Calm 1.2 mph1.9 kmh 30.03 in1016.9 mb - 0.03 in0.8 mm 0.16 in4.1 mm
12:10 AM 50.4°F10.2°C 47.3°F8.5°C 89% 1.2 mph SSE1.9 kmh SSE 2.3 mph3.7 kmh 30.03 in1016.9 mb - 0.04 in1.0 mm 0.13 in3.3 mm
12:05 AM 50.5°F10.3°C 47.1°F8.4°C 88% 1.2 mph SSE1.9 kmh SSE 1.2 mph1.9 kmh 30.03 in1016.9 mb - 0.04 in1.0 mm 0.09 in2.3 mm
12:00 AM 50.5°F10.3°C 47.1°F8.4°C 88% Calm Calm 1.2 mph1.9 kmh 30.03 in1016.9 mb - 0.05 in1.3 mm 0.05 in1.3 mm